Time;durP1;ratioP1;P1;durP2;ratioP2;P2;SDS_P1;SDS_P2;PMS_P1;PMS_P2;Temp;Humidity;BMP_temperature;BMP_pressure;BME280_temperature;BME280_humidity;BME280_pressure;Samples;Min_cycle;Max_cycle;Signal;HPM_P1;HPM_P2
2022/11/23 00:00:43;;;;;;;39.07;20.67;;;1.10;99.90;;;;;;4984532;28;20225;-76
2022/11/23 00:03:14;;;;;;;38.13;22.00;;;1.10;99.90;;;;;;4983516;28;20237;-78
2022/11/23 00:05:40;;;;;;;50.77;21.70;;;1.10;99.90;;;;;;4985521;28;20225;-76
2022/11/23 00:08:07;;;;;;;45.70;21.70;;;1.10;99.90;;;;;;4987435;28;20223;-77
2022/11/23 00:10:33;;;;;;;35.87;21.37;;;1.10;99.90;;;;;;4985541;28;20220;-75
2022/11/23 00:13:01;;;;;;;35.00;19.87;;;1.20;99.90;;;;;;4999095;28;20236;-77
2022/11/23 00:15:28;;;;;;;35.23;20.53;;;1.20;99.90;;;;;;4984983;28;20226;-78
2022/11/23 00:17:55;;;;;;;34.33;20.37;;;1.20;99.90;;;;;;4986763;28;20236;-78
2022/11/23 00:20:21;;;;;;;38.23;21.90;;;1.20;99.90;;;;;;4985387;28;20226;-78
2022/11/23 00:22:48;;;;;;;34.50;20.77;;;1.20;99.90;;;;;;4984380;28;20461;-77
2022/11/23 00:25:15;;;;;;;34.63;20.33;;;1.20;99.90;;;;;;4977318;28;20233;-77
2022/11/23 00:27:42;;;;;;;37.00;21.67;;;1.20;99.90;;;;;;4995640;28;20216;-79
2022/11/23 00:30:12;;;;;;;36.17;20.53;;;1.30;99.90;;;;;;4985501;28;20243;-78
2022/11/23 00:32:38;;;;;;;34.87;21.23;;;1.30;99.90;;;;;;4998477;28;20229;-78
2022/11/23 00:35:07;;;;;;;35.10;20.60;;;1.30;99.90;;;;;;4984361;28;20232;-79
2022/11/23 00:37:34;;;;;;;36.57;21.10;;;1.30;99.90;;;;;;4983048;28;20219;-78
2022/11/23 00:40:00;;;;;;;33.97;20.17;;;1.30;99.90;;;;;;4985625;28;20224;-79
2022/11/23 00:42:27;;;;;;;35.80;21.33;;;1.30;99.90;;;;;;4984252;28;20230;-78
2022/11/23 00:44:54;;;;;;;35.63;20.90;;;1.40;99.90;;;;;;4981146;28;20221;-79
2022/11/23 00:47:22;;;;;;;36.83;20.73;;;1.40;99.90;;;;;;4982075;28;20233;-78
2022/11/23 00:49:48;;;;;;;31.93;19.33;;;1.40;99.90;;;;;;4986727;28;20232;-78
2022/11/23 00:52:17;;;;;;;33.33;19.20;;;1.40;99.90;;;;;;4985748;28;20256;-78
2022/11/23 00:54:44;;;;;;;36.23;20.20;;;1.50;99.90;;;;;;4993839;28;20286;-77
2022/11/23 00:57:11;;;;;;;32.73;19.47;;;1.50;99.90;;;;;;4988060;28;20222;-78
2022/11/23 00:59:38;;;;;;;36.40;20.23;;;1.50;99.90;;;;;;4990040;28;20307;-78
2022/11/23 01:02:04;;;;;;;35.87;20.47;;;1.50;99.90;;;;;;4993869;28;20226;-77
2022/11/23 01:04:33;;;;;;;33.23;18.70;;;1.50;99.90;;;;;;4991585;28;20218;-78
2022/11/23 01:06:59;;;;;;;32.00;20.50;;;1.50;99.90;;;;;;4989165;28;20224;-79
2022/11/23 01:09:27;;;;;;;43.33;20.83;;;1.50;99.90;;;;;;4988574;28;20236;-77
2022/11/23 01:11:54;;;;;;;32.60;19.73;;;1.50;99.90;;;;;;4988163;28;20233;-77
2022/11/23 01:14:24;;;;;;;34.37;20.27;;;1.50;99.90;;;;;;4985339;28;20661;-77
2022/11/23 01:16:50;;;;;;;33.67;19.93;;;1.60;99.90;;;;;;4992216;28;20222;-79
2022/11/23 01:19:19;;;;;;;34.63;20.43;;;1.60;99.90;;;;;;4987242;28;20230;-78
2022/11/23 01:21:51;;;;;;;33.90;19.53;;;1.60;99.90;;;;;;4986120;28;20307;-78
2022/11/23 01:24:20;;;;;;;30.27;18.93;;;1.70;99.90;;;;;;4997328;28;20233;-77
2022/11/23 01:26:50;;;;;;;36.80;20.03;;;1.70;99.90;;;;;;4989722;28;20230;-79
2022/11/23 01:29:17;;;;;;;36.30;19.57;;;1.80;99.90;;;;;;4986022;28;20240;-76
2022/11/23 01:31:44;;;;;;;30.53;18.60;;;1.70;99.90;;;;;;4984743;28;20243;-79
2022/11/23 01:34:14;;;;;;;32.63;19.17;;;1.70;99.90;;;;;;4989949;28;20722;-78
2022/11/23 01:36:41;;;;;;;32.03;19.97;;;1.80;99.90;;;;;;4986746;28;20710;-79
2022/11/23 01:39:11;;;;;;;30.87;19.17;;;1.80;99.90;;;;;;4985947;28;20786;-79
2022/11/23 01:41:40;;;;;;;32.90;18.27;;;1.80;99.90;;;;;;4984336;28;20232;-76
2022/11/23 01:44:26;;;;;;;33.40;19.17;;;1.80;99.90;;;;;;4985708;28;20259;-77
2022/11/23 01:46:54;;;;;;;33.77;19.53;;;1.80;99.90;;;;;;5003110;28;20224;-77
2022/11/23 01:49:22;;;;;;;31.80;18.77;;;1.80;99.90;;;;;;4986414;28;20831;-78
2022/11/23 01:51:51;;;;;;;33.17;18.83;;;1.80;99.90;;;;;;4987886;28;20233;-77
2022/11/23 01:54:24;;;;;;;31.43;18.27;;;1.80;99.90;;;;;;4984104;28;20712;-77
2022/11/23 01:56:54;;;;;;;29.47;18.00;;;1.90;99.90;;;;;;4985467;28;20745;-76
2022/11/23 01:59:23;;;;;;;33.87;19.10;;;1.80;99.90;;;;;;4988163;28;20305;-77
2022/11/23 02:01:50;;;;;;;33.00;19.00;;;1.90;99.90;;;;;;4984278;28;20808;-78
2022/11/23 02:04:23;;;;;;;32.63;19.47;;;1.90;99.90;;;;;;4984688;28;20227;-77
2022/11/23 02:06:52;;;;;;;31.23;19.17;;;1.90;99.90;;;;;;4987433;28;20226;-78
2022/11/23 02:09:22;;;;;;;31.10;18.13;;;1.90;99.90;;;;;;4982565;28;20715;-78
2022/11/23 02:11:48;;;;;;;29.80;18.07;;;1.80;99.90;;;;;;4987084;28;20722;-78
2022/11/23 02:14:15;;;;;;;31.40;19.20;;;1.90;99.90;;;;;;4988176;28;20602;-79
2022/11/23 02:16:42;;;;;;;34.97;18.93;;;1.90;99.90;;;;;;4987158;28;20226;-80
2022/11/23 02:19:21;;;;;;;30.27;19.20;;;1.90;99.90;;;;;;4991629;28;20261;-79
2022/11/23 02:21:49;;;;;;;31.00;19.50;;;1.90;99.90;;;;;;5005792;28;20256;-79
2022/11/23 02:24:25;;;;;;;35.27;20.50;;;1.90;99.90;;;;;;4987960;28;20233;-79
2022/11/23 02:26:53;;;;;;;32.20;18.70;;;1.80;99.90;;;;;;4986735;28;20354;-79
2022/11/23 02:29:24;;;;;;;31.63;19.40;;;2.00;99.90;;;;;;4987937;28;20232;-79
2022/11/23 02:31:51;;;;;;;27.90;18.17;;;1.90;99.90;;;;;;4994772;28;20908;-76
2022/11/23 02:34:18;;;;;;;29.13;18.00;;;1.90;99.90;;;;;;4976342;28;20947;-78
2022/11/23 02:36:46;;;;;;;31.20;18.33;;;1.90;99.90;;;;;;4986317;28;20229;-78
2022/11/23 02:39:16;;;;;;;32.70;18.67;;;1.90;99.90;;;;;;4985828;28;20220;-78
2022/11/23 02:41:47;;;;;;;28.10;17.40;;;1.90;99.90;;;;;;4983532;28;20233;-78
2022/11/23 02:44:25;;;;;;;33.57;17.77;;;1.90;99.90;;;;;;4984666;28;20759;-78
2022/11/23 02:46:52;;;;;;;32.00;18.20;;;1.90;99.90;;;;;;5002496;28;20239;-77
2022/11/23 02:49:19;;;;;;;27.83;17.03;;;1.90;99.90;;;;;;4986029;28;20240;-77
2022/11/23 02:51:46;;;;;;;30.50;17.43;;;1.90;99.90;;;;;;4985809;28;20635;-78
2022/11/23 02:54:12;;;;;;;31.93;19.03;;;1.80;99.90;;;;;;4983712;28;20248;-77
2022/11/23 02:56:40;;;;;;;27.67;17.53;;;1.80;99.90;;;;;;5002408;28;20628;-78
2022/11/23 02:59:08;;;;;;;29.53;18.13;;;1.90;99.90;;;;;;4986327;28;20371;-78
2022/11/23 03:01:38;;;;;;;40.57;19.90;;;1.90;99.90;;;;;;4987380;28;20271;-79
2022/11/23 03:04:06;;;;;;;33.20;18.40;;;1.90;99.90;;;;;;4986331;28;20224;-79
2022/11/23 03:06:32;;;;;;;29.83;18.47;;;2.00;99.90;;;;;;4986018;28;20232;-78
2022/11/23 03:08:59;;;;;;;31.47;18.77;;;2.00;99.90;;;;;;4990952;28;20214;-78
2022/11/23 03:11:26;;;;;;;29.03;17.50;;;2.00;99.90;;;;;;4986951;28;20377;-79
2022/11/23 03:13:53;;;;;;;29.13;17.77;;;2.00;99.90;;;;;;4985944;28;20225;-79
2022/11/23 03:16:20;;;;;;;28.17;18.37;;;2.10;99.90;;;;;;4988589;28;20315;-77
2022/11/23 03:18:50;;;;;;;62.57;19.73;;;2.10;99.90;;;;;;4990337;28;20706;-80
2022/11/23 03:21:17;;;;;;;37.00;18.60;;;2.10;99.90;;;;;;4985421;28;20226;-79
2022/11/23 03:23:44;;;;;;;29.00;18.67;;;2.20;99.90;;;;;;4992319;28;20217;-79
2022/11/23 03:26:13;;;;;;;31.83;17.50;;;2.20;99.90;;;;;;4987225;28;20311;-77
2022/11/23 03:28:46;;;;;;;29.73;18.93;;;2.20;99.90;;;;;;4986381;28;20225;-79
2022/11/23 03:31:14;;;;;;;29.60;17.63;;;2.20;99.90;;;;;;4986540;28;20846;-78
2022/11/23 03:33:42;;;;;;;28.87;18.07;;;2.30;99.90;;;;;;4995096;28;20235;-79
2022/11/23 03:36:10;;;;;;;29.73;17.77;;;2.30;99.90;;;;;;4987766;28;21039;-78
2022/11/23 03:38:41;;;;;;;29.77;17.07;;;2.30;99.90;;;;;;4984225;28;20219;-79
2022/11/23 03:41:21;;;;;;;32.00;18.13;;;2.30;99.90;;;;;;4984760;28;20350;-78
2022/11/23 03:43:51;;;;;;;32.30;17.43;;;2.30;99.90;;;;;;4993312;28;20224;-77
2022/11/23 03:46:18;;;;;;;27.40;17.43;;;2.30;99.90;;;;;;4981879;28;20235;-78
2022/11/23 03:48:44;;;;;;;29.27;18.27;;;2.30;99.90;;;;;;5009699;28;20839;-78
2022/11/23 03:51:13;;;;;;;32.13;17.50;;;2.40;99.90;;;;;;4985312;28;20218;-78
2022/11/23 03:53:39;;;;;;;31.63;17.67;;;2.30;99.90;;;;;;4983553;28;20292;-76
2022/11/23 03:56:06;;;;;;;29.07;16.53;;;2.30;99.90;;;;;;4985341;28;20325;-77
2022/11/23 03:58:37;;;;;;;30.33;17.57;;;2.30;99.90;;;;;;4995768;28;20264;-75
2022/11/23 04:01:07;;;;;;;29.37;17.50;;;2.30;99.90;;;;;;4986710;28;20227;-75
2022/11/23 04:03:34;;;;;;;29.27;17.27;;;2.30;99.90;;;;;;5011234;23;20296;-79
2022/11/23 04:06:09;;;;;;;28.17;16.63;;;2.30;99.90;;;;;;5007657;28;20278;-82
2022/11/23 04:08:56;;;;;;;28.63;16.87;;;2.30;99.90;;;;;;5040801;28;20224;-84
2022/11/23 04:11:39;;;;;;;27.70;17.10;;;2.30;99.90;;;;;;4965996;28;20237;-84
2022/11/23 04:14:08;;;;;;;30.50;17.23;;;2.30;99.90;;;;;;4915190;28;20256;-83
2022/11/23 04:16:37;;;;;;;25.30;16.77;;;2.30;99.90;;;;;;4922346;28;20697;-84
2022/11/23 04:19:11;;;;;;;29.27;17.10;;;2.30;99.90;;;;;;5001487;28;20238;-82
2022/11/23 04:21:37;;;;;;;25.77;16.10;;;2.30;99.90;;;;;;5001627;28;20224;-83
2022/11/23 04:24:08;;;;;;;28.90;17.17;;;2.30;99.90;;;;;;4965349;28;20230;-82
2022/11/23 04:26:36;;;;;;;30.33;18.57;;;2.30;99.90;;;;;;4963688;28;20222;-83
2022/11/23 04:29:05;;;;;;;25.47;16.30;;;2.30;99.90;;;;;;5009124;28;20213;-82
2022/11/23 04:31:33;;;;;;;24.77;16.07;;;2.30;99.90;;;;;;4993411;28;20229;-83
2022/11/23 04:34:10;;;;;;;25.50;15.57;;;2.40;99.90;;;;;;4919370;28;20231;-83
2022/11/23 04:36:38;;;;;;;28.90;16.53;;;2.40;99.90;;;;;;4967621;28;20225;-84
2022/11/23 04:39:11;;;;;;;25.43;15.93;;;2.30;99.90;;;;;;5006097;28;20283;-82
2022/11/23 04:41:57;;;;;;;27.27;16.03;;;2.40;99.90;;;;;;4986310;28;20230;-82
2022/11/23 04:44:24;;;;;;;27.20;16.47;;;2.40;99.90;;;;;;5006706;28;20405;-83
2022/11/23 04:47:00;;;;;;;23.70;15.13;;;2.40;99.90;;;;;;4997328;28;20312;-82
2022/11/23 04:49:27;;;;;;;23.30;15.23;;;2.40;99.90;;;;;;5010926;28;20229;-82
2022/11/23 04:51:54;;;;;;;22.03;15.53;;;2.50;99.90;;;;;;5005000;28;20259;-83
2022/11/23 04:54:27;;;;;;;25.93;16.53;;;2.50;99.90;;;;;;4987887;28;20232;-82
2022/11/23 04:56:58;;;;;;;24.40;15.73;;;2.50;99.90;;;;;;4964953;28;20225;-82
2022/11/23 04:59:25;;;;;;;24.30;14.00;;;2.50;99.90;;;;;;4984895;28;20817;-83
2022/11/23 05:01:52;;;;;;;25.73;15.23;;;2.50;99.90;;;;;;4987426;28;20379;-83
2022/11/23 05:04:42;;;;;;;24.93;15.07;;;2.50;99.90;;;;;;4943475;28;20658;-82
2022/11/23 05:07:10;;;;;;;23.57;15.23;;;2.50;99.90;;;;;;5006099;28;20301;-82
2022/11/23 05:09:40;;;;;;;27.97;14.93;;;2.60;99.90;;;;;;5009803;28;20825;-79
2022/11/23 05:12:12;;;;;;;25.73;14.73;;;2.60;99.90;;;;;;5004370;28;20220;-80
2022/11/23 05:14:41;;;;;;;23.57;15.17;;;2.60;99.90;;;;;;5004872;28;20356;-80
2022/11/23 05:17:09;;;;;;;23.53;15.20;;;2.60;99.90;;;;;;4970246;28;20290;-79
2022/11/23 05:19:36;;;;;;;24.23;15.23;;;2.60;99.90;;;;;;4938476;28;20305;-80
2022/11/23 05:22:02;;;;;;;25.27;15.73;;;2.60;99.90;;;;;;4932720;28;20247;-78
2022/11/23 05:24:32;;;;;;;21.77;13.87;;;2.60;99.90;;;;;;4966246;28;20239;-86
2022/11/23 05:27:07;;;;;;;23.63;14.33;;;2.60;99.90;;;;;;5011355;28;20275;-80
2022/11/23 05:29:34;;;;;;;22.93;13.70;;;2.60;99.90;;;;;;4975434;28;20228;-79
2022/11/23 05:32:01;;;;;;;27.00;14.60;;;2.60;99.90;;;;;;5012850;28;20668;-80
2022/11/23 05:34:28;;;;;;;29.93;15.63;;;2.60;99.90;;;;;;4985568;28;20221;-80
2022/11/23 05:36:55;;;;;;;24.53;14.57;;;2.60;99.90;;;;;;4999159;28;20234;-81
2022/11/23 05:39:22;;;;;;;28.70;14.87;;;2.60;99.90;;;;;;4957947;28;20228;-81
2022/11/23 05:41:52;;;;;;;22.30;13.90;;;2.60;99.90;;;;;;4998391;28;20217;-82
2022/11/23 05:44:42;;;;;;;21.37;14.00;;;2.60;99.90;;;;;;4924393;28;20649;-80
2022/11/23 05:47:16;;;;;;;23.50;15.10;;;2.70;99.90;;;;;;4951023;28;20217;-81
2022/11/23 05:49:42;;;;;;;26.77;15.47;;;2.70;99.90;;;;;;5009936;28;20221;-83
2022/11/23 05:52:09;;;;;;;36.40;16.00;;;2.60;99.90;;;;;;5005645;28;20225;-83
2022/11/23 05:54:38;;;;;;;49.47;15.90;;;2.70;99.90;;;;;;5005155;28;20236;-82
2022/11/23 05:57:11;;;;;;;46.60;16.13;;;2.70;99.90;;;;;;4958101;28;20316;-86
2022/11/23 05:59:43;;;;;;;26.43;16.00;;;2.70;99.90;;;;;;4961138;28;20344;-84
2022/11/23 06:02:15;;;;;;;24.80;14.70;;;2.70;99.90;;;;;;4964956;28;20242;-82
2022/11/23 06:04:47;;;;;;;31.50;16.77;;;2.70;99.90;;;;;;4971506;28;20241;-81
2022/11/23 06:07:18;;;;;;;30.17;16.00;;;2.70;99.90;;;;;;4998932;28;20237;-86
2022/11/23 06:10:09;;;;;;;20.77;13.90;;;2.70;99.90;;;;;;4969589;28;20271;-82
2022/11/23 06:12:39;;;;;;;62.60;17.27;;;2.70;99.90;;;;;;4923178;28;20347;-82
2022/11/23 06:15:11;;;;;;;28.90;15.03;;;2.70;99.90;;;;;;4964244;28;20367;-82
2022/11/23 06:17:38;;;;;;;25.17;14.47;;;2.70;99.90;;;;;;4944148;28;20745;-81
2022/11/23 06:20:13;;;;;;;31.30;15.77;;;2.70;99.90;;;;;;5007795;28;20222;-82
2022/11/23 06:22:43;;;;;;;24.83;14.37;;;2.70;99.90;;;;;;5008161;28;20225;-84
2022/11/23 06:25:10;;;;;;;28.33;15.93;;;2.70;99.90;;;;;;4996836;28;20762;-82
2022/11/23 06:27:43;;;;;;;23.33;15.20;;;2.70;99.90;;;;;;4986789;28;20564;-81
2022/11/23 06:30:19;;;;;;;26.63;14.57;;;2.60;99.90;;;;;;4919325;28;20224;-81
2022/11/23 06:32:47;;;;;;;26.13;13.97;;;2.60;99.90;;;;;;4972654;28;20252;-81
2022/11/23 06:35:15;;;;;;;25.67;15.27;;;2.60;99.90;;;;;;4955407;28;20583;-81
2022/11/23 06:37:44;;;;;;;24.07;14.13;;;2.60;99.90;;;;;;5015030;28;20229;-81
2022/11/23 06:40:15;;;;;;;27.63;15.13;;;2.50;99.90;;;;;;5003654;28;20477;-81
2022/11/23 06:42:44;;;;;;;23.63;14.30;;;2.50;99.90;;;;;;5005688;28;20226;-82
2022/11/23 06:45:19;;;;;;;22.77;13.93;;;2.50;99.90;;;;;;5001745;28;20240;-81
2022/11/23 06:47:47;;;;;;;24.63;15.47;;;2.50;99.90;;;;;;5000636;28;20304;-81
2022/11/23 06:50:15;;;;;;;23.30;14.80;;;2.50;99.90;;;;;;4951716;28;20271;-81
2022/11/23 06:52:44;;;;;;;54.43;16.23;;;2.50;99.90;;;;;;5001101;28;20660;-81
2022/11/23 06:55:11;;;;;;;28.00;14.70;;;2.50;99.90;;;;;;5002840;28;20708;-81
2022/11/23 06:57:37;;;;;;;25.07;15.37;;;2.50;99.90;;;;;;5003106;28;20226;-82
2022/11/23 07:00:05;;;;;;;30.30;14.17;;;2.50;99.90;;;;;;5002815;28;20213;-81
2022/11/23 07:02:38;;;;;;;45.70;16.20;;;2.50;99.90;;;;;;4967853;28;20230;-81
2022/11/23 07:05:05;;;;;;;28.03;14.90;;;2.50;99.90;;;;;;5003847;28;20286;-81
2022/11/23 07:07:32;;;;;;;21.63;12.93;;;2.50;99.90;;;;;;4959814;28;20791;-81
2022/11/23 07:10:10;;;;;;;25.70;13.70;;;2.50;99.90;;;;;;4989539;28;20273;-81
2022/11/23 07:12:43;;;;;;;23.40;13.43;;;2.60;99.90;;;;;;4970096;28;20662;-81
2022/11/23 07:15:11;;;;;;;23.57;14.40;;;2.60;99.90;;;;;;5011540;28;20223;-81
2022/11/23 07:17:41;;;;;;;22.83;14.57;;;2.60;99.90;;;;;;4907484;28;20228;-81
2022/11/23 07:20:11;;;;;;;22.87;13.87;;;2.60;99.90;;;;;;4957029;28;20231;-81
2022/11/23 07:22:38;;;;;;;25.23;13.97;;;2.60;99.90;;;;;;4967265;28;20237;-81
2022/11/23 07:25:15;;;;;;;20.20;12.50;;;2.60;99.90;;;;;;4994899;28;20953;-82
2022/11/23 07:27:41;;;;;;;21.40;12.97;;;2.70;99.90;;;;;;4992232;28;20365;-82
2022/11/23 07:30:12;;;;;;;22.23;12.37;;;2.70;99.90;;;;;;5003304;28;20276;-81
2022/11/23 07:32:40;;;;;;;22.07;14.20;;;2.70;99.90;;;;;;5002587;28;20213;-82
2022/11/23 07:35:08;;;;;;;24.67;13.63;;;2.70;99.90;;;;;;4993943;28;20226;-81
2022/11/23 07:37:37;;;;;;;21.07;13.30;;;2.70;99.90;;;;;;4929239;28;20225;-81
2022/11/23 07:40:06;;;;;;;19.83;12.67;;;2.80;99.90;;;;;;4986567;28;20216;-80
2022/11/23 07:42:34;;;;;;;18.10;12.90;;;2.80;99.90;;;;;;5002348;28;20252;-81
2022/11/23 07:45:02;;;;;;;22.37;12.80;;;2.80;99.90;;;;;;5000955;28;20780;-81
2022/11/23 07:47:29;;;;;;;21.43;12.37;;;2.90;99.90;;;;;;5003302;28;20229;-81
2022/11/23 07:49:57;;;;;;;20.20;12.77;;;2.90;99.90;;;;;;5002483;28;20470;-82
2022/11/23 07:52:24;;;;;;;19.00;12.23;;;2.90;99.90;;;;;;4999801;28;20232;-82
2022/11/23 07:54:50;;;;;;;21.13;12.43;;;3.00;99.90;;;;;;4999982;28;20228;-82
2022/11/23 07:57:17;;;;;;;21.13;12.33;;;3.00;99.90;;;;;;4992226;28;20263;-82
2022/11/23 07:59:44;;;;;;;19.43;12.70;;;3.00;99.90;;;;;;4931780;28;20733;-82
2022/11/23 08:02:16;;;;;;;21.70;11.87;;;3.00;99.90;;;;;;4912988;28;20229;-82
2022/11/23 08:04:42;;;;;;;21.33;12.17;;;3.00;99.90;;;;;;4944343;28;20228;-81
2022/11/23 08:07:12;;;;;;;17.30;12.00;;;3.00;99.90;;;;;;4944952;28;20225;-83
2022/11/23 08:09:38;;;;;;;19.00;11.97;;;3.10;99.90;;;;;;4975360;28;20240;-82
2022/11/23 08:12:05;;;;;;;18.17;11.47;;;3.20;99.90;;;;;;4984845;28;20229;-81
2022/11/23 08:14:32;;;;;;;18.40;12.43;;;3.20;99.90;;;;;;4982800;28;20224;-82
2022/11/23 08:16:59;;;;;;;18.00;11.30;;;3.20;99.90;;;;;;4926419;28;20325;-82
2022/11/23 08:19:25;;;;;;;17.77;11.03;;;3.20;99.90;;;;;;4995540;28;20304;-82
2022/11/23 08:21:52;;;;;;;21.20;11.37;;;3.20;99.90;;;;;;4999941;28;20229;-82
2022/11/23 08:24:20;;;;;;;17.87;11.97;;;3.30;99.90;;;;;;4999347;28;20233;-81
2022/11/23 08:26:47;;;;;;;17.93;11.10;;;3.20;99.90;;;;;;4979014;28;20220;-82
2022/11/23 08:29:14;;;;;;;15.47;10.27;;;3.30;99.90;;;;;;4949963;28;20590;-82
2022/11/23 08:31:40;;;;;;;16.50;10.17;;;3.30;99.90;;;;;;5001260;28;20243;-81
2022/11/23 08:34:07;;;;;;;17.50;10.97;;;3.40;99.90;;;;;;4996712;28;20232;-82
2022/11/23 08:36:34;;;;;;;17.97;10.87;;;3.40;99.90;;;;;;4989302;28;20229;-81
2022/11/23 08:39:00;;;;;;;19.73;11.53;;;3.50;99.90;;;;;;4948734;28;20225;-81
2022/11/23 08:41:28;;;;;;;13.10;9.47;;;3.60;99.90;;;;;;4968612;28;20231;-81
2022/11/23 08:43:55;;;;;;;14.67;9.73;;;3.60;99.90;;;;;;5000676;28;20673;-82
2022/11/23 08:46:22;;;;;;;18.00;10.20;;;3.70;99.90;;;;;;4950067;28;20391;-81
2022/11/23 08:48:48;;;;;;;16.07;8.57;;;3.70;99.90;;;;;;4966688;28;20706;-81
2022/11/23 08:51:21;;;;;;;12.07;8.10;;;3.80;99.90;;;;;;4982650;28;20225;-82
2022/11/23 08:53:48;;;;;;;12.83;8.30;;;3.80;99.90;;;;;;4913320;28;20232;-81
2022/11/23 08:56:17;;;;;;;13.47;8.37;;;3.80;99.90;;;;;;4905587;28;20649;-81
2022/11/23 08:58:45;;;;;;;14.37;8.60;;;3.90;99.90;;;;;;4923745;28;20522;-81
2022/11/23 09:01:14;;;;;;;13.63;7.97;;;4.00;99.90;;;;;;4947995;28;20798;-81
2022/11/23 09:03:44;;;;;;;15.77;9.03;;;4.00;99.90;;;;;;4988916;28;20542;-81
2022/11/23 09:06:11;;;;;;;13.07;8.33;;;4.00;99.90;;;;;;4996206;28;20249;-81
2022/11/23 09:08:37;;;;;;;13.20;7.73;;;4.10;99.90;;;;;;4983223;28;20230;-81
2022/11/23 09:11:06;;;;;;;10.83;7.80;;;4.20;99.90;;;;;;5014184;28;20225;-81
2022/11/23 09:13:35;;;;;;;10.37;7.50;;;4.30;99.90;;;;;;4977301;28;20229;-81
2022/11/23 09:16:04;;;;;;;15.63;7.90;;;4.40;99.90;;;;;;5003364;28;20766;-81
2022/11/23 09:18:32;;;;;;;9.73;6.77;;;4.40;99.90;;;;;;4916017;28;20226;-81
2022/11/23 09:21:01;;;;;;;10.63;7.00;;;4.50;99.90;;;;;;4934843;28;20229;-81
2022/11/23 09:23:28;;;;;;;13.30;7.80;;;4.50;99.90;;;;;;4921702;28;20318;-81
2022/11/23 09:25:58;;;;;;;13.03;7.57;;;4.60;99.90;;;;;;5003632;28;20229;-81
2022/11/23 09:28:26;;;;;;;11.47;7.40;;;4.60;99.90;;;;;;4988958;28;20520;-81
2022/11/23 09:30:54;;;;;;;12.40;7.27;;;4.70;99.90;;;;;;4982998;28;20231;-81
2022/11/23 09:33:22;;;;;;;12.50;6.70;;;4.70;99.90;;;;;;5002733;28;20264;-81
2022/11/23 09:35:56;;;;;;;10.23;6.80;;;4.80;99.90;;;;;;4933388;28;20225;-81
2022/11/23 09:38:23;;;;;;;8.83;6.40;;;4.90;99.90;;;;;;4937726;28;20233;-81
2022/11/23 09:40:59;;;;;;;9.70;6.80;;;4.90;99.90;;;;;;5004481;28;20222;-81
2022/11/23 09:43:56;;;;;;;10.07;6.70;;;5.00;99.90;;;;;;4903779;28;20222;-81
2022/11/23 09:46:33;;;;;;;10.63;6.70;;;5.00;99.90;;;;;;4951915;28;20318;-81
2022/11/23 09:49:13;;;;;;;12.00;6.37;;;5.10;99.90;;;;;;4988707;28;20237;-81
2022/11/23 09:51:41;;;;;;;8.33;5.40;;;5.10;99.90;;;;;;4912528;28;20636;-81
2022/11/23 09:54:32;;;;;;;7.37;5.93;;;5.20;99.90;;;;;;4895621;28;20369;-81
2022/11/23 09:56:59;;;;;;;11.47;6.33;;;5.40;99.90;;;;;;4930277;28;20338;-81
2022/11/23 09:59:36;;;;;;;12.80;6.43;;;5.60;99.90;;;;;;4935174;28;20221;-81
2022/11/23 10:02:03;;;;;;;11.80;5.73;;;5.80;99.90;;;;;;4980183;28;20228;-81
2022/11/23 10:04:34;;;;;;;9.77;5.47;;;6.10;99.90;;;;;;4912119;28;20733;-82
2022/11/23 10:07:11;;;;;;;9.40;5.13;;;6.30;99.90;;;;;;4947427;28;20224;-82
2022/11/23 10:09:45;;;;;;;7.47;5.00;;;6.50;99.90;;;;;;4887870;28;20720;-82
2022/11/23 10:12:34;;;;;;;8.47;5.07;;;6.60;99.90;;;;;;4913305;28;20220;-82
2022/11/23 10:15:12;;;;;;;8.27;4.80;;;6.60;99.90;;;;;;4974718;28;20851;-82
2022/11/23 10:18:03;;;;;;;10.67;4.77;;;6.70;99.90;;;;;;5003881;28;20292;-82
2022/11/23 10:20:44;;;;;;;7.73;4.97;;;6.70;99.90;;;;;;5001391;28;20676;-85
2022/11/23 10:23:17;;;;;;;8.73;4.97;;;6.80;99.90;;;;;;4970981;28;20233;-82
2022/11/23 10:25:48;;;;;;;8.93;5.20;;;6.90;99.90;;;;;;5001940;28;20236;-82
2022/11/23 10:28:20;;;;;;;9.13;5.33;;;7.00;99.90;;;;;;5004373;28;20233;-82
2022/11/23 10:30:56;;;;;;;10.27;4.83;;;7.20;99.90;;;;;;4962916;28;20237;-83
2022/11/23 10:33:30;;;;;;;10.00;4.87;;;7.30;99.90;;;;;;4948003;28;20234;-83
2022/11/23 10:35:58;;;;;;;8.43;4.80;;;7.40;99.90;;;;;;4918089;28;20326;-83
2022/11/23 10:38:27;;;;;;;7.60;4.80;;;7.50;99.90;;;;;;4969891;28;20225;-83
2022/11/23 10:41:02;;;;;;;10.20;5.60;;;7.50;99.90;;;;;;5005523;28;20727;-82
2022/11/23 10:43:32;;;;;;;9.27;5.00;;;7.40;99.90;;;;;;4999813;28;20926;-83
2022/11/23 10:46:28;;;;;;;8.63;4.77;;;7.40;99.90;;;;;;4942197;28;20225;-84
2022/11/23 10:49:17;;;;;;;8.77;6.37;;;7.30;99.90;;;;;;4866044;28;20361;-82
2022/11/23 10:51:53;;;;;;;12.27;5.50;;;7.40;99.90;;;;;;5006550;28;20774;-81
2022/11/23 10:54:24;;;;;;;8.23;4.67;;;7.40;99.90;;;;;;4954970;28;20286;-84
2022/11/23 10:56:52;;;;;;;7.83;4.70;;;7.40;99.90;;;;;;4981999;28;20226;-81
2022/11/23 10:59:27;;;;;;;9.73;4.90;;;7.40;99.90;;;;;;4903209;28;20258;-83
2022/11/23 11:02:11;;;;;;;8.03;4.83;;;7.40;99.90;;;;;;4899705;28;20228;-82
2022/11/23 11:04:38;;;;;;;8.53;4.40;;;7.50;99.90;;;;;;4891650;28;20737;-82
2022/11/23 11:07:23;;;;;;;9.83;4.83;;;7.40;99.90;;;;;;4908619;28;20860;-84
2022/11/23 11:09:51;;;;;;;8.33;4.77;;;7.50;99.90;;;;;;4947542;28;20233;-82
2022/11/23 11:12:18;;;;;;;11.00;5.33;;;7.40;99.90;;;;;;4911454;28;20270;-84
2022/11/23 11:15:01;;;;;;;8.60;4.67;;;7.40;99.90;;;;;;4918391;28;20222;-83
2022/11/23 11:17:30;;;;;;;9.27;5.27;;;7.30;99.90;;;;;;4886406;28;20476;-83
2022/11/23 11:20:00;;;;;;;7.70;4.67;;;7.30;99.90;;;;;;4890177;28;20300;-82
2022/11/23 11:22:34;;;;;;;7.57;5.03;;;7.20;99.90;;;;;;4963500;28;20589;-82
2022/11/23 11:25:01;;;;;;;9.07;4.90;;;7.10;99.90;;;;;;4885922;28;20232;-81
2022/11/23 11:27:32;;;;;;;9.00;5.07;;;7.10;99.90;;;;;;4907303;28;20703;-82
2022/11/23 11:30:08;;;;;;;9.53;5.60;;;7.10;99.90;;;;;;4931429;28;20635;-84
2022/11/23 11:32:54;;;;;;;;;;;;;;;;;;;;;
2022/11/23 11:35:25;;;;;;;9.70;5.50;;;7.00;99.90;;;;;;4985408;28;20230;-84
2022/11/23 11:37:59;;;;;;;10.00;5.17;;;7.00;99.90;;;;;;5001435;28;20317;-82
2022/11/23 11:40:31;;;;;;;8.80;5.43;;;7.00;99.90;;;;;;4982107;28;20233;-83
2022/11/23 11:43:03;;;;;;;10.93;5.67;;;7.00;99.90;;;;;;4995356;28;20228;-83
2022/11/23 11:45:33;;;;;;;9.27;5.00;;;7.00;99.90;;;;;;4976181;28;20240;-84
2022/11/23 11:48:07;;;;;;;10.87;5.37;;;6.90;99.90;;;;;;4977110;28;20229;-83
2022/11/23 11:50:38;;;;;;;8.00;5.20;;;6.80;99.90;;;;;;4945633;28;20279;-83
2022/11/23 11:53:13;;;;;;;14.43;5.50;;;6.80;99.90;;;;;;4998191;28;20228;-83
2022/11/23 11:55:50;;;;;;;8.43;5.43;;;6.80;99.90;;;;;;4906141;28;20223;-84
2022/11/23 11:58:17;;;;;;;9.60;5.40;;;6.80;99.90;;;;;;4990284;28;20230;-83
2022/11/23 12:00:48;;;;;;;10.03;5.50;;;6.80;99.90;;;;;;5004031;28;20254;-82
2022/11/23 12:03:31;;;;;;;8.53;5.07;;;6.70;99.90;;;;;;5002747;28;20436;-83
2022/11/23 12:06:06;;;;;;;10.47;5.73;;;6.70;99.90;;;;;;4935724;28;20237;-83
2022/11/23 12:08:46;;;;;;;9.73;5.27;;;6.60;99.90;;;;;;4953842;28;20711;-83
2022/11/23 12:11:13;;;;;;;11.13;5.27;;;6.60;99.90;;;;;;4909047;28;20227;-84
2022/11/23 12:13:43;;;;;;;11.67;5.73;;;6.60;99.90;;;;;;4900204;28;20599;-82
2022/11/23 12:16:19;;;;;;;12.13;5.67;;;6.60;99.90;;;;;;4904590;28;20214;-83
2022/11/23 12:19:13;;;;;;;8.07;4.80;;;6.50;99.90;;;;;;4922821;28;20224;-83
2022/11/23 12:22:07;;;;;;;10.97;5.20;;;6.60;99.90;;;;;;4918274;28;20280;-82
2022/11/23 12:25:01;;;;;;;8.97;5.17;;;6.60;99.90;;;;;;4942741;28;20248;-83
2022/11/23 12:27:39;;;;;;;10.10;4.90;;;6.60;99.90;;;;;;4880090;28;20335;-83
2022/11/23 12:30:24;;;;;;;8.37;4.80;;;6.70;99.90;;;;;;4938838;28;20289;-83
2022/11/23 12:33:32;;;;;;;9.37;5.03;;;6.80;99.90;;;;;;4929912;28;20323;-86
2022/11/23 12:36:13;;;;;;;10.57;4.73;;;6.90;99.90;;;;;;4922567;28;20664;-84
2022/11/23 12:38:46;;;;;;;13.37;4.90;;;7.00;99.90;;;;;;4975496;28;20228;-84
2022/11/23 12:41:30;;;;;;;9.70;4.80;;;7.00;99.90;;;;;;4992359;28;20243;-83
2022/11/23 12:44:25;;;;;;;6.27;4.17;;;7.00;99.90;;;;;;4932626;28;20234;-84
2022/11/23 12:46:59;;;;;;;8.50;4.30;;;7.10;99.90;;;;;;4970956;28;20262;-83
2022/11/23 12:49:36;;;;;;;10.87;3.97;;;7.10;99.90;;;;;;4964329;28;20227;-85
2022/11/23 12:52:19;;;;;;;7.57;4.07;;;7.10;99.90;;;;;;4964352;28;20221;-83
2022/11/23 12:54:58;;;;;;;8.40;4.53;;;7.10;99.90;;;;;;4949062;28;20233;-84
2022/11/23 12:57:32;;;;;;;8.73;3.90;;;7.10;99.90;;;;;;4919128;28;20854;-83
2022/11/23 13:00:05;;;;;;;5.33;3.87;;;7.10;99.90;;;;;;4887228;28;20259;-83
2022/11/23 13:02:54;;;;;;;7.57;3.90;;;7.00;99.90;;;;;;5004675;28;20319;-83